Time;durP1;ratioP1;P1;durP2;ratioP2;P2;SDS_P1;SDS_P2;PMS_P1;PMS_P2;Temp;Humidity;BMP_temperature;BMP_pressure;BME280_temperature;BME280_humidity;BME280_pressure;Samples;Min_cycle;Max_cycle;Signal;HPM_P1;HPM_P2
2020/12/07 00:01:26;;;;;;;74.95;34.85;;;;;;;;;;5072124;28;20031;-81
2020/12/07 00:03:52;;;;;;;79.78;35.45;;;;;;;;;;5073303;28;20055;-87
2020/12/07 00:06:18;;;;;;;71.88;33.60;;;;;;;;;;5073042;28;20044;-83
2020/12/07 00:08:44;;;;;;;75.72;34.72;;;;;;;;;;5073276;28;20075;-88
2020/12/07 00:11:11;;;;;;;73.30;33.97;;;;;;;;;;5073175;28;20503;-87
2020/12/07 00:13:37;;;;;;;77.78;34.38;;;;;;;;;;5072973;28;20025;-88
2020/12/07 00:16:03;;;;;;;72.40;33.97;;;;;;;;;;5071754;28;20025;-87
2020/12/07 00:18:29;;;;;;;81.55;36.15;;;;;;;;;;5072936;28;20024;-87
2020/12/07 00:20:55;;;;;;;83.97;36.08;;;;;;;;;;5073089;28;20027;-87
2020/12/07 00:23:21;;;;;;;82.80;34.92;;;;;;;;;;5072923;28;20428;-87
2020/12/07 00:25:47;;;;;;;77.70;35.13;;;;;;;;;;5072834;28;20032;-87
2020/12/07 00:28:14;;;;;;;81.45;35.80;;;;;;;;;;5072890;28;20031;-87
2020/12/07 00:30:40;;;;;;;79.22;34.80;;;;;;;;;;5072878;28;20016;-89
2020/12/07 00:33:06;;;;;;;82.85;37.13;;;;;;;;;;5073123;28;20052;-89
2020/12/07 00:35:33;;;;;;;76.05;35.17;;;;;;;;;;5072995;28;20380;-80
2020/12/07 00:37:59;;;;;;;79.60;36.20;;;;;;;;;;5073194;28;20020;-88
2020/12/07 00:40:25;;;;;;;74.32;35.25;;;;;;;;;;5072890;28;20033;-88
2020/12/07 00:42:51;;;;;;;73.85;33.97;;;;;;;;;;5072396;28;20036;-88
2020/12/07 00:45:17;;;;;;;80.60;35.50;;;;;;;;;;5072412;28;20029;-87
2020/12/07 00:47:43;;;;;;;83.90;36.50;;;;;;;;;;5072788;28;20020;-85
2020/12/07 00:50:09;;;;;;;77.03;34.75;;;;;;;;;;5071478;28;20427;-89
2020/12/07 00:52:35;;;;;;;74.90;35.72;;;;;;;;;;5065345;28;20025;-87
2020/12/07 00:55:01;;;;;;;75.53;34.33;;;;;;;;;;5053023;28;20032;-88
2020/12/07 00:57:27;;;;;;;87.78;35.72;;;;;;;;;;5052516;28;20098;-87
2020/12/07 00:59:53;;;;;;;77.57;34.58;;;;;;;;;;5052580;28;20489;-88
2020/12/07 01:02:19;;;;;;;77.47;34.50;;;;;;;;;;5052157;28;20539;-88
2020/12/07 01:04:45;;;;;;;79.47;34.30;;;;;;;;;;5063830;28;20074;-85
2020/12/07 01:07:11;;;;;;;82.47;36.05;;;;;;;;;;5072388;28;20033;-88
2020/12/07 01:09:37;;;;;;;77.03;34.42;;;;;;;;;;5072288;28;20020;-88
2020/12/07 01:12:03;;;;;;;70.97;32.72;;;;;;;;;;5072698;28;20468;-86
2020/12/07 01:14:29;;;;;;;77.57;34.15;;;;;;;;;;5072613;28;20027;-88
2020/12/07 01:16:55;;;;;;;82.90;34.90;;;;;;;;;;5072575;28;20035;-84
2020/12/07 01:19:22;;;;;;;71.15;33.75;;;;;;;;;;5072431;28;20027;-89
2020/12/07 01:21:49;;;;;;;86.53;37.28;;;;;;;;;;5072754;28;20028;-89
2020/12/07 01:24:15;;;;;;;77.68;34.90;;;;;;;;;;5072788;28;20029;-89
2020/12/07 01:26:41;;;;;;;84.85;35.70;;;;;;;;;;5072543;28;20046;-89
2020/12/07 01:29:07;;;;;;;84.22;35.42;;;;;;;;;;5072609;28;20033;-88
2020/12/07 01:31:33;;;;;;;74.78;33.95;;;;;;;;;;5072630;28;20021;-83
2020/12/07 01:33:59;;;;;;;83.55;37.28;;;;;;;;;;5072775;28;20016;-88
2020/12/07 01:36:25;;;;;;;82.80;34.55;;;;;;;;;;5072320;28;20025;-88
2020/12/07 01:38:51;;;;;;;76.18;34.58;;;;;;;;;;5072549;28;20032;-89
2020/12/07 01:41:17;;;;;;;78.10;32.92;;;;;;;;;;5071945;28;20028;-89
2020/12/07 01:43:44;;;;;;;81.40;34.20;;;;;;;;;;5070900;28;20023;-88
2020/12/07 01:46:16;;;;;;;72.20;32.95;;;;;;;;;;5072133;28;20043;-85
2020/12/07 01:48:42;;;;;;;80.55;35.53;;;;;;;;;;5072122;28;20075;-90
2020/12/07 01:51:08;;;;;;;83.35;35.97;;;;;;;;;;5071135;28;20035;-89
2020/12/07 01:53:34;;;;;;;74.90;33.90;;;;;;;;;;5072324;28;20013;-88
2020/12/07 01:56:01;;;;;;;78.88;33.47;;;;;;;;;;5072567;28;20016;-89
2020/12/07 01:58:28;;;;;;;80.65;34.72;;;;;;;;;;5072462;28;20023;-88
2020/12/07 02:00:54;;;;;;;72.13;33.63;;;;;;;;;;5072063;28;20040;-89
2020/12/07 02:03:21;;;;;;;72.20;33.10;;;;;;;;;;5072065;28;20017;-88
2020/12/07 02:05:47;;;;;;;72.65;34.63;;;;;;;;;;5072049;28;20024;-85
2020/12/07 02:08:16;;;;;;;62.63;30.50;;;;;;;;;;5071955;28;20100;-88
2020/12/07 02:10:43;;;;;;;66.45;32.42;;;;;;;;;;5072112;28;20108;-87
2020/12/07 02:13:09;;;;;;;77.72;33.00;;;;;;;;;;5071996;28;20099;-89
2020/12/07 02:15:36;;;;;;;74.25;33.08;;;;;;;;;;5072877;28;20468;-88
2020/12/07 02:18:02;;;;;;;72.03;32.40;;;;;;;;;;5054445;28;20020;-88
2020/12/07 02:20:28;;;;;;;74.53;32.97;;;;;;;;;;5055213;28;20021;-88
2020/12/07 02:22:54;;;;;;;78.53;34.00;;;;;;;;;;5055431;28;20087;-87
2020/12/07 02:25:20;;;;;;;76.40;33.60;;;;;;;;;;5055442;28;20025;-90
2020/12/07 02:27:50;;;;;;;73.13;32.38;;;;;;;;;;5055389;28;20040;-84
2020/12/07 02:30:20;;;;;;;75.80;32.53;;;;;;;;;;5055839;28;20468;-88
2020/12/07 02:32:46;;;;;;;67.85;30.80;;;;;;;;;;5055409;28;20029;-87
2020/12/07 02:35:13;;;;;;;73.68;32.90;;;;;;;;;;5055359;28;20024;-88
2020/12/07 02:37:43;;;;;;;70.28;32.47;;;;;;;;;;5055056;28;20024;-88
2020/12/07 02:40:10;;;;;;;74.95;33.45;;;;;;;;;;5055347;28;20086;-88
2020/12/07 02:42:36;;;;;;;71.30;32.83;;;;;;;;;;5061626;28;20027;-88
2020/12/07 02:45:04;;;;;;;72.03;32.58;;;;;;;;;;5075111;28;20043;-88
2020/12/07 02:47:30;;;;;;;72.28;32.72;;;;;;;;;;5074954;28;20039;-86
2020/12/07 02:49:56;;;;;;;72.35;33.35;;;;;;;;;;5074765;28;20032;-81
2020/12/07 02:52:26;;;;;;;75.90;35.03;;;;;;;;;;5074528;28;20074;-87
2020/12/07 02:54:53;;;;;;;76.57;32.53;;;;;;;;;;5074752;28;20024;-88
2020/12/07 02:57:19;;;;;;;72.22;32.80;;;;;;;;;;5074799;28;20422;-88
2020/12/07 02:59:45;;;;;;;71.80;32.63;;;;;;;;;;5074832;28;20099;-88
2020/12/07 03:02:11;;;;;;;70.43;33.05;;;;;;;;;;5074813;28;20021;-88
2020/12/07 03:04:37;;;;;;;77.00;33.80;;;;;;;;;;5074536;28;20025;-87
2020/12/07 03:07:03;;;;;;;69.05;31.98;;;;;;;;;;5074334;28;20041;-85
2020/12/07 03:09:29;;;;;;;71.55;33.15;;;;;;;;;;5074768;28;20028;-87
2020/12/07 03:11:55;;;;;;;76.80;35.70;;;;;;;;;;5074273;28;20032;-88
2020/12/07 03:14:21;;;;;;;82.75;35.42;;;;;;;;;;5072814;28;20025;-86
2020/12/07 03:16:47;;;;;;;72.78;33.83;;;;;;;;;;5074307;28;20028;-87
2020/12/07 03:19:13;;;;;;;73.70;33.20;;;;;;;;;;5074344;28;20075;-87
2020/12/07 03:21:40;;;;;;;72.07;32.72;;;;;;;;;;5074007;28;20017;-87
2020/12/07 03:24:06;;;;;;;65.65;30.50;;;;;;;;;;5072607;28;20029;-87
2020/12/07 03:26:35;;;;;;;73.00;31.38;;;;;;;;;;5073803;28;20115;-87
2020/12/07 03:29:04;;;;;;;69.20;32.05;;;;;;;;;;5074230;28;20021;-87
2020/12/07 03:31:31;;;;;;;73.35;32.50;;;;;;;;;;5074134;28;20537;-87
2020/12/07 03:33:57;;;;;;;70.03;31.35;;;;;;;;;;5074052;28;20021;-87
2020/12/07 03:36:23;;;;;;;66.07;30.65;;;;;;;;;;5073782;28;20025;-87
2020/12/07 03:38:49;;;;;;;74.07;30.75;;;;;;;;;;5073766;28;20017;-87
2020/12/07 03:41:15;;;;;;;64.10;29.10;;;;;;;;;;5073752;28;20024;-87
2020/12/07 03:43:41;;;;;;;69.97;30.30;;;;;;;;;;5073834;28;20028;-87
2020/12/07 03:46:07;;;;;;;68.47;30.70;;;;;;;;;;5073311;28;20032;-87
2020/12/07 03:48:33;;;;;;;71.65;31.40;;;;;;;;;;5073517;28;20506;-85
2020/12/07 03:50:59;;;;;;;71.82;30.83;;;;;;;;;;5073559;28;20058;-87
2020/12/07 03:53:25;;;;;;;62.28;28.50;;;;;;;;;;5073378;28;20052;-87
2020/12/07 03:55:51;;;;;;;73.10;31.73;;;;;;;;;;5073154;28;20017;-86
2020/12/07 03:58:17;;;;;;;59.25;31.30;;;;;;;;;;5071968;28;20032;-86
2020/12/07 04:00:43;;;;;;;60.53;29.67;;;;;;;;;;5073173;28;20043;-87
2020/12/07 04:03:12;;;;;;;62.92;29.38;;;;;;;;;;5073198;28;20036;-88
2020/12/07 04:05:39;;;;;;;65.25;28.70;;;;;;;;;;5073097;28;20108;-87
2020/12/07 04:08:05;;;;;;;71.15;30.77;;;;;;;;;;5071932;28;20411;-87
2020/12/07 04:10:31;;;;;;;68.93;30.92;;;;;;;;;;5073209;28;20017;-87
2020/12/07 04:12:57;;;;;;;60.70;29.05;;;;;;;;;;5073289;28;20017;-82
2020/12/07 04:15:23;;;;;;;75.07;30.92;;;;;;;;;;5071110;28;20031;-85
2020/12/07 04:17:49;;;;;;;69.57;32.35;;;;;;;;;;5072911;28;20077;-86
2020/12/07 04:20:15;;;;;;;70.25;33.08;;;;;;;;;;5064716;28;20473;-91
2020/12/07 04:22:41;;;;;;;72.38;32.35;;;;;;;;;;5053193;28;20025;-90
2020/12/07 04:25:07;;;;;;;76.05;34.10;;;;;;;;;;5053589;28;20021;-91
2020/12/07 04:27:34;;;;;;;73.35;32.33;;;;;;;;;;5052918;28;20465;-73
2020/12/07 04:30:00;;;;;;;72.00;32.88;;;;;;;;;;5053041;28;20025;-85
2020/12/07 04:32:26;;;;;;;73.13;31.02;;;;;;;;;;5052583;28;20412;-84
2020/12/07 04:34:52;;;;;;;69.22;33.13;;;;;;;;;;5053176;28;20370;-84
2020/12/07 04:37:18;;;;;;;76.13;32.80;;;;;;;;;;5052377;28;20461;-84
2020/12/07 04:39:44;;;;;;;75.47;33.17;;;;;;;;;;5053108;28;20477;-85
2020/12/07 04:42:11;;;;;;;69.30;31.50;;;;;;;;;;5052887;28;20025;-80
2020/12/07 04:44:37;;;;;;;65.78;30.88;;;;;;;;;;5052538;28;20086;-79
2020/12/07 04:47:04;;;;;;;73.50;33.05;;;;;;;;;;5052024;28;20039;-82
2020/12/07 04:49:31;;;;;;;65.53;30.85;;;;;;;;;;5052373;28;20024;-83
2020/12/07 04:51:58;;;;;;;69.97;32.45;;;;;;;;;;5052123;28;20021;-86
2020/12/07 04:54:25;;;;;;;70.47;32.03;;;;;;;;;;5052280;28;20025;-84
2020/12/07 04:57:02;;;;;;;40.78;19.25;;;;;;;;;;5056608;28;20494;-83
2020/12/07 04:59:28;;;;;;;22.88;11.07;;;;;;;;;;5056843;28;20392;-73
2020/12/07 05:01:54;;;;;;;21.23;10.35;;;;;;;;;;5052750;28;20021;-81
2020/12/07 05:04:20;;;;;;;16.85;9.07;;;;;;;;;;5052307;28;20021;-82
2020/12/07 05:06:57;;;;;;;16.17;9.38;;;;;;;;;;5053436;28;20183;-86
2020/12/07 05:09:24;;;;;;;18.70;9.77;;;;;;;;;;5053733;28;20545;-83
2020/12/07 05:11:50;;;;;;;15.13;8.85;;;;;;;;;;5052725;28;20017;-82
2020/12/07 05:14:16;;;;;;;12.45;7.13;;;;;;;;;;5052375;28;20025;-81
2020/12/07 05:16:44;;;;;;;12.55;7.53;;;;;;;;;;5052667;28;20028;-78
2020/12/07 05:19:10;;;;;;;11.77;6.38;;;;;;;;;;5052720;28;20051;-80
2020/12/07 05:21:38;;;;;;;9.15;5.18;;;;;;;;;;5052730;28;20029;-82
2020/12/07 05:24:05;;;;;;;8.70;5.20;;;;;;;;;;5052584;28;20025;-82
2020/12/07 05:26:34;;;;;;;11.63;5.72;;;;;;;;;;5051865;28;20036;-76
2020/12/07 05:29:04;;;;;;;9.75;5.45;;;;;;;;;;5051311;28;20044;-82
2020/12/07 05:31:32;;;;;;;8.70;5.43;;;;;;;;;;5050789;28;20427;-77
2020/12/07 05:33:58;;;;;;;8.65;5.13;;;;;;;;;;5051411;28;20013;-83
2020/12/07 05:36:24;;;;;;;9.02;5.47;;;;;;;;;;5051169;28;20028;-81
2020/12/07 05:38:50;;;;;;;7.95;4.97;;;;;;;;;;5051565;28;20550;-75
2020/12/07 05:41:16;;;;;;;9.88;5.80;;;;;;;;;;5051912;28;20138;-77
2020/12/07 05:43:43;;;;;;;9.13;5.72;;;;;;;;;;5052080;28;20090;-83
2020/12/07 05:46:10;;;;;;;10.18;6.03;;;;;;;;;;5051104;28;20433;-86
2020/12/07 05:48:36;;;;;;;10.30;6.13;;;;;;;;;;5053877;28;20033;-84
2020/12/07 05:51:04;;;;;;;11.23;6.15;;;;;;;;;;5055965;28;20535;-79
2020/12/07 05:53:37;;;;;;;10.25;6.00;;;;;;;;;;5056676;28;20025;-92
2020/12/07 05:56:04;;;;;;;9.10;5.83;;;;;;;;;;5056406;28;20485;-84
2020/12/07 05:58:30;;;;;;;8.48;5.30;;;;;;;;;;5056850;28;20033;-92
2020/12/07 06:00:58;;;;;;;8.85;5.63;;;;;;;;;;5056778;28;20028;-91
2020/12/07 06:03:25;;;;;;;9.00;5.85;;;;;;;;;;5056654;28;20036;-83
2020/12/07 06:05:51;;;;;;;9.07;5.40;;;;;;;;;;5056234;28;20043;-91
2020/12/07 06:08:20;;;;;;;9.60;5.88;;;;;;;;;;5056168;28;20025;-92
2020/12/07 06:10:58;;;;;;;10.35;5.80;;;;;;;;;;5056233;28;20036;-87
2020/12/07 06:13:25;;;;;;;10.50;5.70;;;;;;;;;;5056161;28;20020;-91
2020/12/07 06:15:52;;;;;;;9.25;4.90;;;;;;;;;;5055978;28;20039;-90
2020/12/07 06:18:29;;;;;;;7.35;4.60;;;;;;;;;;5055895;28;20554;-89
2020/12/07 06:21:15;;;;;;;5.60;3.10;;;;;;;;;;5056266;28;20032;-88
2020/12/07 06:23:42;;;;;;;6.93;3.75;;;;;;;;;;5052163;28;20051;-91
2020/12/07 06:26:09;;;;;;;5.82;4.07;;;;;;;;;;5056312;28;20029;-80
2020/12/07 06:28:39;;;;;;;5.38;3.50;;;;;;;;;;5056029;28;20028;-92
2020/12/07 06:31:06;;;;;;;4.68;2.70;;;;;;;;;;5055585;28;20480;-84
2020/12/07 06:33:43;;;;;;;5.45;3.40;;;;;;;;;;5056478;28;20021;-84
2020/12/07 06:36:25;;;;;;;6.72;4.15;;;;;;;;;;5072000;28;20102;-89
2020/12/07 06:38:52;;;;;;;7.85;4.88;;;;;;;;;;5075834;28;20022;-87
2020/12/07 06:41:29;;;;;;;4.45;3.28;;;;;;;;;;5076722;28;20028;-87
2020/12/07 06:43:59;;;;;;;4.95;3.35;;;;;;;;;;5076433;28;20094;-91
2020/12/07 06:46:44;;;;;;;7.50;4.55;;;;;;;;;;5076118;28;20480;-89
2020/12/07 06:49:11;;;;;;;7.07;4.00;;;;;;;;;;5075685;28;20368;-82
2020/12/07 06:51:39;;;;;;;5.78;3.05;;;;;;;;;;5076212;28;20059;-86
2020/12/07 06:55:01;;;;;;;4.43;3.30;;;;;;;;;;5076228;28;20021;-83
2020/12/07 06:56:53;;;;;;;6.63;3.83;;;;;;;;;;5076131;28;20032;-87
2020/12/07 06:59:19;;;;;;;4.43;2.97;;;;;;;;;;5076866;28;20055;-81
2020/12/07 07:01:52;;;;;;;5.80;3.88;;;;;;;;;;5081394;28;20103;-78
2020/12/07 07:04:21;;;;;;;5.53;3.22;;;;;;;;;;5085072;28;20376;-80
2020/12/07 07:06:47;;;;;;;6.68;3.95;;;;;;;;;;5080956;28;20043;-87
2020/12/07 07:09:13;;;;;;;5.30;3.65;;;;;;;;;;5083278;28;20495;-79
2020/12/07 07:11:39;;;;;;;6.20;3.83;;;;;;;;;;5084273;28;20043;-73
2020/12/07 07:14:06;;;;;;;6.22;4.22;;;;;;;;;;5084832;28;20029;-77
2020/12/07 07:16:33;;;;;;;6.32;4.13;;;;;;;;;;5083888;28;20031;-76
2020/12/07 07:18:59;;;;;;;5.82;3.35;;;;;;;;;;5084407;28;20024;-87
2020/12/07 07:21:25;;;;;;;6.35;4.07;;;;;;;;;;5087145;28;20017;-91
2020/12/07 07:23:53;;;;;;;5.75;4.18;;;;;;;;;;5084458;28;20024;-72
2020/12/07 07:26:25;;;;;;;5.55;3.47;;;;;;;;;;5082021;28;20465;-74
2020/12/07 07:28:52;;;;;;;5.40;3.58;;;;;;;;;;5080853;28;20024;-84
2020/12/07 07:31:18;;;;;;;4.13;2.90;;;;;;;;;;5080069;28;20025;-78
2020/12/07 07:33:45;;;;;;;7.22;3.83;;;;;;;;;;5077112;28;20031;-84
2020/12/07 07:36:21;;;;;;;7.30;4.63;;;;;;;;;;5078321;28;20020;-83
2020/12/07 07:38:52;;;;;;;4.85;3.60;;;;;;;;;;5076926;28;20016;-82
2020/12/07 07:41:30;;;;;;;5.43;3.70;;;;;;;;;;5077637;28;20044;-81
2020/12/07 07:43:56;;;;;;;6.38;4.07;;;;;;;;;;5077213;28;20037;-89
2020/12/07 07:46:23;;;;;;;5.38;3.83;;;;;;;;;;5078184;28;20029;-82
2020/12/07 07:49:28;;;;;;;6.25;3.67;;;;;;;;;;5077932;28;20108;-82
2020/12/07 07:54:49;;;;;;;7.95;4.35;;;;;;;;;;5078805;28;20029;-79
2020/12/07 08:00:28;;;;;;;6.85;4.15;;;;;;;;;;5074774;28;20044;-88
2020/12/07 08:15:54;;;;;;;7.72;3.20;;;;;;;;;;5074836;28;20476;-88
2020/12/07 08:18:37;;;;;;;5.85;3.35;;;;;;;;;;5074744;28;20051;-90
2020/12/07 08:21:04;;;;;;;7.05;4.05;;;;;;;;;;5075067;28;20379;-81
2020/12/07 08:23:31;;;;;;;5.25;3.03;;;;;;;;;;5074790;28;20020;-85
2020/12/07 08:25:58;;;;;;;6.18;3.05;;;;;;;;;;5073991;28;20035;-91
2020/12/07 08:28:24;;;;;;;4.30;2.67;;;;;;;;;;5076246;28;20020;-92
2020/12/07 08:31:05;;;;;;;4.15;2.50;;;;;;;;;;5073865;28;20353;-87
2020/12/07 08:33:31;;;;;;;3.55;2.38;;;;;;;;;;5074257;28;20020;-88
2020/12/07 08:35:58;;;;;;;4.80;2.83;;;;;;;;;;5073618;28;20082;-91
2020/12/07 08:38:25;;;;;;;3.83;2.55;;;;;;;;;;5074526;28;20384;-83
2020/12/07 08:40:51;;;;;;;4.60;3.40;;;;;;;;;;5076074;28;20028;-89
2020/12/07 08:43:17;;;;;;;5.85;3.72;;;;;;;;;;5074836;28;20047;-85
2020/12/07 08:45:47;;;;;;;4.28;2.90;;;;;;;;;;5077335;28;20455;-77
2020/12/07 08:48:14;;;;;;;4.78;2.63;;;;;;;;;;5077652;28;20029;-89
2020/12/07 08:50:40;;;;;;;6.60;3.40;;;;;;;;;;5077584;28;20024;-93
2020/12/07 08:53:06;;;;;;;4.35;3.17;;;;;;;;;;5071123;28;20032;-92
2020/12/07 08:55:32;;;;;;;3.50;2.58;;;;;;;;;;5056954;28;20437;-90
2020/12/07 08:57:58;;;;;;;4.03;2.42;;;;;;;;;;5056346;28;20032;-91
2020/12/07 09:00:24;;;;;;;5.38;3.33;;;;;;;;;;5055919;28;20119;-90
2020/12/07 09:02:50;;;;;;;6.78;4.03;;;;;;;;;;5056281;28;20163;-91
2020/12/07 09:05:16;;;;;;;5.65;3.97;;;;;;;;;;5056724;28;20021;-91
2020/12/07 09:07:42;;;;;;;5.28;3.28;;;;;;;;;;5056242;28;20033;-91
2020/12/07 09:10:09;;;;;;;5.35;3.75;;;;;;;;;;5053764;28;20025;-92
2020/12/07 09:12:36;;;;;;;5.55;3.85;;;;;;;;;;5053769;28;20029;-93
2020/12/07 09:15:02;;;;;;;5.30;3.78;;;;;;;;;;5056338;28;20024;-92
2020/12/07 09:17:28;;;;;;;6.07;4.43;;;;;;;;;;5054231;28;20075;-91
2020/12/07 09:19:54;;;;;;;5.90;3.72;;;;;;;;;;5055234;28;20014;-92
2020/12/07 09:22:20;;;;;;;6.28;4.40;;;;;;;;;;5054089;28;20021;-81
2020/12/07 09:24:46;;;;;;;6.30;4.05;;;;;;;;;;5059443;28;20021;-91
2020/12/07 09:27:12;;;;;;;6.38;4.00;;;;;;;;;;5059452;28;20033;-91
2020/12/07 09:29:38;;;;;;;24.90;5.10;;;;;;;;;;5057552;28;20075;-88
2020/12/07 09:32:04;;;;;;;7.18;4.47;;;;;;;;;;5056139;28;20385;-78
2020/12/07 09:34:30;;;;;;;7.50;4.93;;;;;;;;;;5057557;28;20096;-91
2020/12/07 09:36:56;;;;;;;9.18;4.85;;;;;;;;;;5057694;28;20081;-91
2020/12/07 09:39:22;;;;;;;10.45;6.07;;;;;;;;;;5056310;28;20492;-91
2020/12/07 09:41:48;;;;;;;9.27;5.65;;;;;;;;;;5056590;28;20401;-90
2020/12/07 09:44:14;;;;;;;8.65;5.65;;;;;;;;;;5058171;28;20472;-86
2020/12/07 09:46:40;;;;;;;9.50;5.97;;;;;;;;;;5056239;28;20120;-91
2020/12/07 09:49:06;;;;;;;9.82;5.85;;;;;;;;;;5056865;28;20029;-93
2020/12/07 09:51:32;;;;;;;8.60;5.35;;;;;;;;;;5058133;28;20021;-91
2020/12/07 09:53:58;;;;;;;8.93;6.05;;;;;;;;;;5056859;28;20024;-85
2020/12/07 09:56:29;;;;;;;7.90;4.88;;;;;;;;;;5056923;28;20040;-92
2020/12/07 09:58:56;;;;;;;10.23;6.75;;;;;;;;;;5056596;28;20040;-90
2020/12/07 10:01:22;;;;;;;11.73;6.10;;;;;;;;;;5056704;28;20057;-92
2020/12/07 10:03:48;;;;;;;9.90;6.15;;;;;;;;;;5057101;28;20029;-81
2020/12/07 10:06:14;;;;;;;7.38;4.93;;;;;;;;;;5059355;28;20028;-92
2020/12/07 10:08:40;;;;;;;8.88;5.57;;;;;;;;;;5077455;28;20028;-89
2020/12/07 10:11:06;;;;;;;7.85;5.97;;;;;;;;;;5078117;28;20020;-88
2020/12/07 10:13:32;;;;;;;7.78;5.22;;;;;;;;;;5076708;28;20028;-90
2020/12/07 10:15:59;;;;;;;7.38;4.97;;;;;;;;;;5077899;28;20483;-89
2020/12/07 10:18:25;;;;;;;7.57;5.70;;;;;;;;;;5077766;28;20048;-92
2020/12/07 10:20:51;;;;;;;8.82;6.13;;;;;;;;;;5076613;28;20021;-91
2020/12/07 10:23:17;;;;;;;9.68;6.45;;;;;;;;;;5076926;28;20028;-87
2020/12/07 10:25:48;;;;;;;9.70;6.55;;;;;;;;;;5077769;28;20502;-91
2020/12/07 10:28:14;;;;;;;7.72;5.13;;;;;;;;;;5078536;28;20035;-80
2020/12/07 10:30:40;;;;;;;9.02;6.47;;;;;;;;;;5077437;28;20047;-89
2020/12/07 10:33:06;;;;;;;8.52;5.95;;;;;;;;;;5077467;28;20040;-87
2020/12/07 10:35:32;;;;;;;8.07;5.80;;;;;;;;;;5078510;28;20487;-90
2020/12/07 10:37:58;;;;;;;9.90;6.55;;;;;;;;;;5079190;28;20021;-84
2020/12/07 10:40:24;;;;;;;10.13;6.82;;;;;;;;;;5075878;28;20017;-82
2020/12/07 10:42:50;;;;;;;8.48;6.35;;;;;;;;;;5079965;28;20031;-78
2020/12/07 10:45:16;;;;;;;10.18;7.07;;;;;;;;;;5079744;28;20062;-86
2020/12/07 10:47:42;;;;;;;9.13;6.57;;;;;;;;;;5078555;28;20033;-82
2020/12/07 10:50:08;;;;;;;10.25;6.85;;;;;;;;;;5076176;28;20479;-84
2020/12/07 10:52:34;;;;;;;10.73;7.38;;;;;;;;;;5078606;28;20025;-81
2020/12/07 10:55:01;;;;;;;10.98;7.25;;;;;;;;;;5080921;28;20021;-84
2020/12/07 10:57:27;;;;;;;10.23;7.32;;;;;;;;;;5082647;28;20024;-83
2020/12/07 10:59:53;;;;;;;11.60;7.72;;;;;;;;;;5080396;28;20040;-78
2020/12/07 11:02:19;;;;;;;9.18;6.25;;;;;;;;;;5082281;28;20362;-74
2020/12/07 11:04:45;;;;;;;11.75;7.68;;;;;;;;;;5081771;28;20044;-76
2020/12/07 11:07:15;;;;;;;12.57;8.65;;;;;;;;;;5082329;28;20047;-76
2020/12/07 11:09:41;;;;;;;11.90;6.93;;;;;;;;;;5079714;28;20024;-81
2020/12/07 11:12:13;;;;;;;14.10;7.65;;;;;;;;;;5081806;28;20035;-79
2020/12/07 11:14:39;;;;;;;10.77;7.82;;;;;;;;;;5080821;28;20048;-84
2020/12/07 11:17:05;;;;;;;11.27;7.38;;;;;;;;;;5081179;28;20427;-77
2020/12/07 11:19:31;;;;;;;13.30;9.05;;;;;;;;;;5079195;28;20017;-83
2020/12/07 11:21:57;;;;;;;11.50;7.70;;;;;;;;;;5082611;28;20108;-73
2020/12/07 11:24:23;;;;;;;13.95;9.10;;;;;;;;;;5078868;28;20013;-76
2020/12/07 11:26:49;;;;;;;9.88;7.43;;;;;;;;;;5080581;28;20507;-77
2020/12/07 11:29:15;;;;;;;11.02;6.80;;;;;;;;;;5076864;28;20102;-75
2020/12/07 11:31:45;;;;;;;11.52;7.45;;;;;;;;;;5078097;28;20040;-79
2020/12/07 11:34:11;;;;;;;26.25;13.57;;;;;;;;;;5075639;28;20024;-79
2020/12/07 11:36:39;;;;;;;12.13;7.15;;;;;;;;;;5080719;28;20031;-93
2020/12/07 11:44:17;;;;;;;10.00;7.03;;;;;;;;;;5075925;28;20056;-91
2020/12/07 11:46:55;;;;;;;9.88;7.00;;;;;;;;;;5075002;28;20024;-84
2020/12/07 11:49:21;;;;;;;10.90;7.32;;;;;;;;;;5086052;28;20434;-89
2020/12/07 11:51:47;;;;;;;11.95;7.93;;;;;;;;;;5084836;28;20021;-90
2020/12/07 11:54:13;;;;;;;12.60;8.07;;;;;;;;;;5083812;28;20476;-91
2020/12/07 11:56:39;;;;;;;10.98;7.60;;;;;;;;;;5083971;28;20039;-92
2020/12/07 11:59:06;;;;;;;11.73;8.00;;;;;;;;;;5075970;28;20043;-92
2020/12/07 12:01:33;;;;;;;9.70;6.13;;;;;;;;;;5075115;28;20052;-92
2020/12/07 12:03:59;;;;;;;11.50;7.95;;;;;;;;;;5076351;28;20025;-83
2020/12/07 12:06:26;;;;;;;10.23;6.78;;;;;;;;;;5074942;28;20059;-91
2020/12/07 12:08:53;;;;;;;10.93;7.65;;;;;;;;;;5075442;28;20074;-93
2020/12/07 12:11:19;;;;;;;11.90;7.05;;;;;;;;;;5074107;28;20533;-88
2020/12/07 12:13:46;;;;;;;10.88;7.28;;;;;;;;;;5073896;28;20021;-92
2020/12/07 12:16:13;;;;;;;10.70;7.10;;;;;;;;;;5074860;28;20434;-87
2020/12/07 12:18:40;;;;;;;10.70;5.07;;;;;;;;;;5078552;28;20023;-85
2020/12/07 12:21:06;;;;;;;9.57;6.75;;;;;;;;;;5080186;28;20016;-84
2020/12/07 12:23:32;;;;;;;10.63;7.10;;;;;;;;;;5079803;28;20012;-92
2020/12/07 12:25:58;;;;;;;11.68;7.80;;;;;;;;;;5076022;28;20025;-85
2020/12/07 12:28:24;;;;;;;10.20;6.85;;;;;;;;;;5078300;28;20028;-76
2020/12/07 12:30:50;;;;;;;8.52;6.25;;;;;;;;;;5085408;28;20016;-87
2020/12/07 12:33:18;;;;;;;7.72;5.65;;;;;;;;;;5079937;28;20060;-89
2020/12/07 12:35:44;;;;;;;8.43;6.28;;;;;;;;;;5074539;28;20040;-74
2020/12/07 12:38:10;;;;;;;7.95;6.03;;;;;;;;;;5080445;28;20469;-79
2020/12/07 12:40:36;;;;;;;9.38;6.38;;;;;;;;;;5076878;28;20460;-84
2020/12/07 12:43:02;;;;;;;12.48;6.60;;;;;;;;;;5073863;28;20032;-86
2020/12/07 12:45:28;;;;;;;9.55;6.70;;;;;;;;;;5074188;28;20029;-88
2020/12/07 12:47:54;;;;;;;9.45;6.53;;;;;;;;;;5073079;28;20107;-85
2020/12/07 12:50:20;;;;;;;9.05;6.80;;;;;;;;;;5073177;28;20027;-83
2020/12/07 12:52:46;;;;;;;9.00;6.18;;;;;;;;;;5068435;28;20025;-90
2020/12/07 12:55:12;;;;;;;9.10;5.93;;;;;;;;;;5053407;28;20068;-88
2020/12/07 12:57:38;;;;;;;8.85;6.28;;;;;;;;;;5052733;28;20024;-83
2020/12/07 13:00:07;;;;;;;8.13;5.57;;;;;;;;;;5056022;28;20045;-83
2020/12/07 13:02:33;;;;;;;9.02;6.00;;;;;;;;;;5053117;28;20021;-83
2020/12/07 13:04:59;;;;;;;8.63;5.40;;;;;;;;;;5054221;28;20029;-78
2020/12/07 13:07:26;;;;;;;8.45;5.85;;;;;;;;;;5053261;28;20370;-83
2020/12/07 13:09:52;;;;;;;7.90;5.82;;;;;;;;;;5053117;28;20067;-82
2020/12/07 13:12:18;;;;;;;8.32;5.68;;;;;;;;;;5052717;28;20057;-91
2020/12/07 13:14:44;;;;;;;8.68;5.93;;;;;;;;;;5054823;28;20025;-82
2020/12/07 13:17:13;;;;;;;6.70;5.15;;;;;;;;;;5053286;28;20111;-86
2020/12/07 13:19:39;;;;;;;8.98;5.35;;;;;;;;;;5053222;28;20101;-89
2020/12/07 13:24:47;;;;;;;8.07;5.85;;;;;;;;;;5053142;28;20029;-88
2020/12/07 13:29:39;;;;;;;6.85;5.43;;;;;;;;;;5052962;28;20432;-83
2020/12/07 13:32:05;;;;;;;9.55;5.60;;;;;;;;;;5052985;28;20025;-87
2020/12/07 13:34:31;;;;;;;12.18;4.38;;;;;;;;;;5053300;28;20054;-89
2020/12/07 13:36:57;;;;;;;9.90;4.70;;;;;;;;;;5055274;28;20033;-82
2020/12/07 13:39:23;;;;;;;11.75;4.93;;;;;;;;;;5052509;28;20013;-75
2020/12/07 13:41:49;;;;;;;6.32;4.07;;;;;;;;;;5053366;28;20075;-85
2020/12/07 13:44:15;;;;;;;8.15;4.97;;;;;;;;;;5053053;28;20021;-83
2020/12/07 13:46:41;;;;;;;9.70;5.07;;;;;;;;;;5052542;28;20033;-82
2020/12/07 13:49:08;;;;;;;6.35;4.47;;;;;;;;;;5052614;28;20021;-88
2020/12/07 13:51:34;;;;;;;7.60;4.80;;;;;;;;;;5052833;28;20029;-85
2020/12/07 13:54:00;;;;;;;6.38;4.28;;;;;;;;;;5052748;28;20025;-88
2020/12/07 13:56:27;;;;;;;7.22;4.90;;;;;;;;;;5051402;28;20451;-88
2020/12/07 13:58:54;;;;;;;6.95;4.57;;;;;;;;;;5052631;28;20033;-82
2020/12/07 14:01:21;;;;;;;6.82;4.45;;;;;;;;;;5051625;28;20040;-91
2020/12/07 14:03:57;;;;;;;7.68;5.00;;;;;;;;;;5051674;28;20028;-91
2020/12/07 14:06:26;;;;;;;8.25;4.90;;;;;;;;;;5052687;28;20426;-89
2020/12/07 14:08:53;;;;;;;6.68;4.35;;;;;;;;;;5053093;28;20017;-82
2020/12/07 14:11:19;;;;;;;8.48;4.75;;;;;;;;;;5056533;28;20017;-89
2020/12/07 14:13:45;;;;;;;6.15;4.43;;;;;;;;;;5057305;28;20469;-88
2020/12/07 14:16:11;;;;;;;6.13;4.35;;;;;;;;;;5056732;28;20029;-92
2020/12/07 14:18:53;;;;;;;5.63;3.72;;;;;;;;;;5057673;28;20029;-85
2020/12/07 14:21:34;;;;;;;6.10;4.72;;;;;;;;;;5055965;28;20040;-84
2020/12/07 14:24:07;;;;;;;6.35;4.45;;;;;;;;;;5056190;28;20025;-88
2020/12/07 14:26:43;;;;;;;6.80;4.97;;;;;;;;;;5056135;28;20078;-89
2020/12/07 14:35:17;;;;;;;6.45;4.65;;;;;;;;;;5056527;28;20029;-93
2020/12/07 14:40:12;;;;;;;5.93;4.50;;;;;;;;;;5053702;28;20036;-88
2020/12/07 14:42:39;;;;;;;5.65;4.75;;;;;;;;;;5052491;28;20028;-79
2020/12/07 14:45:09;;;;;;;8.35;5.90;;;;;;;;;;5052842;28;20067;-86
2020/12/07 14:47:40;;;;;;;8.35;6.13;;;;;;;;;;5053438;28;20064;-89
2020/12/07 14:50:16;;;;;;;8.32;4.85;;;;;;;;;;5054752;28;20424;-91
2020/12/07 14:52:43;;;;;;;6.88;4.93;;;;;;;;;;5052892;28;20033;-87
2020/12/07 14:55:17;;;;;;;6.15;4.45;;;;;;;;;;5053458;28;20535;-91
2020/12/07 15:05:29;;;;;;;7.47;5.10;;;;;;;;;;5052482;28;20044;-86
2020/12/07 15:15:44;;;;;;;8.00;5.32;;;;;;;;;;5051958;28;20029;-82
2020/12/07 15:18:11;;;;;;;6.47;4.75;;;;;;;;;;5048310;28;20561;-84
2020/12/07 15:20:37;;;;;;;9.25;5.53;;;;;;;;;;5050237;28;20028;-81
2020/12/07 15:23:03;;;;;;;6.18;4.47;;;;;;;;;;5051762;28;20501;-86
2020/12/07 15:25:29;;;;;;;5.50;4.18;;;;;;;;;;5048725;28;20017;-77